sensor_id;sensor_type;location;lat;lon;timestamp;temperature;humidity
70151;DHT22;57517;43.562;19.540;2023-04-03T00:00:54;230.70;2252.80
70151;DHT22;57517;43.562;19.540;2023-04-03T00:03:20;230.90;2252.80
70151;DHT22;57517;43.562;19.540;2023-04-03T00:05:46;231.10;2252.80
70151;DHT22;57517;43.562;19.540;2023-04-03T00:08:12;231.10;2252.80
70151;DHT22;57517;43.562;19.540;2023-04-03T00:10:38;231.10;2252.80
70151;DHT22;57517;43.562;19.540;2023-04-03T00:13:05;230.90;2252.80
70151;DHT22;57517;43.562;19.540;2023-04-03T00:15:31;230.90;2252.80
70151;DHT22;57517;43.562;19.540;2023-04-03T00:17:57;230.90;2252.80
70151;DHT22;57517;43.562;19.540;2023-04-03T00:20:23;230.70;2252.80
70151;DHT22;57517;43.562;19.540;2023-04-03T00:22:48;230.80;2252.80
70151;DHT22;57517;43.562;19.540;2023-04-03T00:25:15;230.80;2252.80
70151;DHT22;57517;43.562;19.540;2023-04-03T00:27:40;230.70;2252.80
70151;DHT22;57517;43.562;19.540;2023-04-03T00:30:15;230.80;2252.80
70151;DHT22;57517;43.562;19.540;2023-04-03T00:32:41;230.80;2252.80
70151;DHT22;57517;43.562;19.540;2023-04-03T00:35:08;230.80;2252.80
70151;DHT22;57517;43.562;19.540;2023-04-03T00:37:34;230.80;2252.80
70151;DHT22;57517;43.562;19.540;2023-04-03T00:39:59;230.80;2252.80
70151;DHT22;57517;43.562;19.540;2023-04-03T00:42:25;230.50;2252.80
70151;DHT22;57517;43.562;19.540;2023-04-03T00:47:24;230.70;2252.80
70151;DHT22;57517;43.562;19.540;2023-04-03T00:49:50;230.80;2252.80
70151;DHT22;57517;43.562;19.540;2023-04-03T00:52:20;230.80;2252.80
70151;DHT22;57517;43.562;19.540;2023-04-03T00:54:47;230.70;2252.80
70151;DHT22;57517;43.562;19.540;2023-04-03T00:57:15;230.80;2252.80
70151;DHT22;57517;43.562;19.540;2023-04-03T00:59:48;230.60;2252.80
70151;DHT22;57517;43.562;19.540;2023-04-03T01:02:14;230.70;2252.80
70151;DHT22;57517;43.562;19.540;2023-04-03T01:04:42;230.60;2252.80
70151;DHT22;57517;43.562;19.540;2023-04-03T01:09:42;230.70;2252.80
70151;DHT22;57517;43.562;19.540;2023-04-03T01:12:16;230.80;2252.80
70151;DHT22;57517;43.562;19.540;2023-04-03T01:14:43;230.80;2252.80
70151;DHT22;57517;43.562;19.540;2023-04-03T01:17:38;230.70;2252.80
70151;DHT22;57517;43.562;19.540;2023-04-03T01:25:51;230.80;2252.80
70151;DHT22;57517;43.562;19.540;2023-04-03T01:28:20;230.80;2252.80
70151;DHT22;57517;43.562;19.540;2023-04-03T01:33:37;230.90;2252.80
70151;DHT22;57517;43.562;19.540;2023-04-03T01:36:03;231.10;2252.80
70151;DHT22;57517;43.562;19.540;2023-04-03T01:38:30;230.90;2252.80
70151;DHT22;57517;43.562;19.540;2023-04-03T01:40:55;230.80;2252.80
70151;DHT22;57517;43.562;19.540;2023-04-03T01:43:21;230.70;2252.80
70151;DHT22;57517;43.562;19.540;2023-04-03T01:45:47;230.60;2252.80
70151;DHT22;57517;43.562;19.540;2023-04-03T01:48:15;230.80;2252.80
70151;DHT22;57517;43.562;19.540;2023-04-03T01:50:40;230.90;2252.80
70151;DHT22;57517;43.562;19.540;2023-04-03T01:53:06;230.90;2252.80
70151;DHT22;57517;43.562;19.540;2023-04-03T01:55:32;230.80;2252.80
70151;DHT22;57517;43.562;19.540;2023-04-03T01:57:58;230.60;2252.80
70151;DHT22;57517;43.562;19.540;2023-04-03T02:00:23;230.70;2252.80
70151;DHT22;57517;43.562;19.540;2023-04-03T02:02:49;230.80;2252.80
70151;DHT22;57517;43.562;19.540;2023-04-03T02:05:15;230.80;2252.80
70151;DHT22;57517;43.562;19.540;2023-04-03T02:07:41;230.80;2252.80
70151;DHT22;57517;43.562;19.540;2023-04-03T02:10:07;230.90;2252.80
70151;DHT22;57517;43.562;19.540;2023-04-03T02:12:32;230.90;2252.80
70151;DHT22;57517;43.562;19.540;2023-04-03T02:14:58;230.70;2252.80
70151;DHT22;57517;43.562;19.540;2023-04-03T02:17:24;230.70;2252.80
70151;DHT22;57517;43.562;19.540;2023-04-03T02:19:50;230.60;2252.80
70151;DHT22;57517;43.562;19.540;2023-04-03T02:22:15;230.70;2252.80
70151;DHT22;57517;43.562;19.540;2023-04-03T02:24:41;230.90;2252.80
70151;DHT22;57517;43.562;19.540;2023-04-03T02:27:07;230.70;2252.80
70151;DHT22;57517;43.562;19.540;2023-04-03T02:29:33;230.90;2252.80
70151;DHT22;57517;43.562;19.540;2023-04-03T02:31:58;231.00;2252.80
70151;DHT22;57517;43.562;19.540;2023-04-03T02:34:24;231.10;2252.80
70151;DHT22;57517;43.562;19.540;2023-04-03T02:36:50;231.10;2252.80
70151;DHT22;57517;43.562;19.540;2023-04-03T02:39:16;231.00;2252.80
70151;DHT22;57517;43.562;19.540;2023-04-03T02:41:42;231.00;2252.80
70151;DHT22;57517;43.562;19.540;2023-04-03T02:44:10;231.00;2252.80
70151;DHT22;57517;43.562;19.540;2023-04-03T02:46:36;230.90;2252.80
70151;DHT22;57517;43.562;19.540;2023-04-03T02:49:02;231.00;2252.80
70151;DHT22;57517;43.562;19.540;2023-04-03T02:51:28;231.10;2252.80
70151;DHT22;57517;43.562;19.540;2023-04-03T02:53:53;231.10;2252.80
70151;DHT22;57517;43.562;19.540;2023-04-03T02:56:19;231.10;2252.80
70151;DHT22;57517;43.562;19.540;2023-04-03T02:58:45;231.10;2252.80
70151;DHT22;57517;43.562;19.540;2023-04-03T03:01:12;231.10;2252.80
70151;DHT22;57517;43.562;19.540;2023-04-03T03:03:37;231.10;2252.80
70151;DHT22;57517;43.562;19.540;2023-04-03T03:06:07;231.10;2252.80
70151;DHT22;57517;43.562;19.540;2023-04-03T03:08:33;231.00;2252.80
70151;DHT22;57517;43.562;19.540;2023-04-03T03:10:59;231.10;2252.80
70151;DHT22;57517;43.562;19.540;2023-04-03T03:13:26;231.10;2252.80
70151;DHT22;57517;43.562;19.540;2023-04-03T03:15:52;231.10;2252.80
70151;DHT22;57517;43.562;19.540;2023-04-03T03:18:18;231.10;2252.80
70151;DHT22;57517;43.562;19.540;2023-04-03T03:20:43;230.90;2252.80
70151;DHT22;57517;43.562;19.540;2023-04-03T03:23:09;230.80;2252.80
70151;DHT22;57517;43.562;19.540;2023-04-03T03:25:39;230.90;2252.80
70151;DHT22;57517;43.562;19.540;2023-04-03T03:28:06;230.90;2252.80
70151;DHT22;57517;43.562;19.540;2023-04-03T03:30:32;231.00;2252.80
70151;DHT22;57517;43.562;19.540;2023-04-03T03:32:57;231.00;2252.80
70151;DHT22;57517;43.562;19.540;2023-04-03T03:35:23;230.90;2252.80
70151;DHT22;57517;43.562;19.540;2023-04-03T03:37:49;230.90;2252.80
70151;DHT22;57517;43.562;19.540;2023-04-03T03:40:14;231.00;2252.80
70151;DHT22;57517;43.562;19.540;2023-04-03T03:42:40;231.10;2252.80
70151;DHT22;57517;43.562;19.540;2023-04-03T03:45:07;231.10;2252.80
70151;DHT22;57517;43.562;19.540;2023-04-03T03:47:32;231.10;2252.80
70151;DHT22;57517;43.562;19.540;2023-04-03T03:49:58;231.00;2252.80
70151;DHT22;57517;43.562;19.540;2023-04-03T03:52:25;230.80;2252.80
70151;DHT22;57517;43.562;19.540;2023-04-03T03:54:51;230.80;2252.80
70151;DHT22;57517;43.562;19.540;2023-04-03T03:57:17;230.50;2252.80
70151;DHT22;57517;43.562;19.540;2023-04-03T03:59:43;230.60;2252.80
70151;DHT22;57517;43.562;19.540;2023-04-03T04:02:10;230.50;2252.80
70151;DHT22;57517;43.562;19.540;2023-04-03T04:04:37;230.40;2252.80
70151;DHT22;57517;43.562;19.540;2023-04-03T04:07:03;230.40;2252.80
70151;DHT22;57517;43.562;19.540;2023-04-03T04:09:28;230.50;2252.80
70151;DHT22;57517;43.562;19.540;2023-04-03T04:11:54;230.70;2252.80
70151;DHT22;57517;43.562;19.540;2023-04-03T04:14:20;230.80;2252.80
70151;DHT22;57517;43.562;19.540;2023-04-03T04:16:49;230.70;2252.80
70151;DHT22;57517;43.562;19.540;2023-04-03T04:19:15;230.80;2252.80
70151;DHT22;57517;43.562;19.540;2023-04-03T04:21:41;230.90;2252.80
70151;DHT22;57517;43.562;19.540;2023-04-03T04:24:07;230.90;2252.80
70151;DHT22;57517;43.562;19.540;2023-04-03T04:26:33;230.50;2252.80
70151;DHT22;57517;43.562;19.540;2023-04-03T04:28:59;230.60;2252.80
70151;DHT22;57517;43.562;19.540;2023-04-03T04:31:25;230.70;2252.80
70151;DHT22;57517;43.562;19.540;2023-04-03T04:33:53;230.90;2252.80
70151;DHT22;57517;43.562;19.540;2023-04-03T04:36:18;230.80;2252.80
70151;DHT22;57517;43.562;19.540;2023-04-03T04:38:45;231.00;2252.80
70151;DHT22;57517;43.562;19.540;2023-04-03T04:41:11;231.00;2252.80
70151;DHT22;57517;43.562;19.540;2023-04-03T04:43:36;231.10;2252.80
70151;DHT22;57517;43.562;19.540;2023-04-03T04:46:04;231.10;2252.80
70151;DHT22;57517;43.562;19.540;2023-04-03T04:48:31;231.20;2252.80
70151;DHT22;57517;43.562;19.540;2023-04-03T04:50:57;231.10;2252.80
70151;DHT22;57517;43.562;19.540;2023-04-03T04:53:22;230.90;2252.80
70151;DHT22;57517;43.562;19.540;2023-04-03T04:55:48;231.00;2252.80
70151;DHT22;57517;43.562;19.540;2023-04-03T04:58:14;231.10;2252.80
70151;DHT22;57517;43.562;19.540;2023-04-03T05:00:39;231.20;2252.80
70151;DHT22;57517;43.562;19.540;2023-04-03T05:03:05;231.10;2252.80
70151;DHT22;57517;43.562;19.540;2023-04-03T05:05:31;231.10;2252.80
70151;DHT22;57517;43.562;19.540;2023-04-03T05:07:57;231.10;2252.80
70151;DHT22;57517;43.562;19.540;2023-04-03T05:10:22;231.20;2252.80
70151;DHT22;57517;43.562;19.540;2023-04-03T05:12:48;231.20;2252.80
70151;DHT22;57517;43.562;19.540;2023-04-03T05:15:14;231.20;2252.80
70151;DHT22;57517;43.562;19.540;2023-04-03T05:17:40;256.10;2252.80
70151;DHT22;57517;43.562;19.540;2023-04-03T05:20:06;256.00;2252.80
70151;DHT22;57517;43.562;19.540;2023-04-03T05:22:32;231.30;2252.80
70151;DHT22;57517;43.562;19.540;2023-04-03T05:24:57;256.00;2252.80
70151;DHT22;57517;43.562;19.540;2023-04-03T05:27:23;231.20;2252.80
70151;DHT22;57517;43.562;19.540;2023-04-03T05:29:50;231.00;2252.80
70151;DHT22;57517;43.562;19.540;2023-04-03T05:32:15;231.00;2252.80
70151;DHT22;57517;43.562;19.540;2023-04-03T05:34:42;231.20;2252.80
70151;DHT22;57517;43.562;19.540;2023-04-03T05:37:07;231.10;2252.80
70151;DHT22;57517;43.562;19.540;2023-04-03T05:39:33;231.10;2252.80
70151;DHT22;57517;43.562;19.540;2023-04-03T05:41:59;231.20;2252.80
70151;DHT22;57517;43.562;19.540;2023-04-03T05:44:25;231.20;2252.80
70151;DHT22;57517;43.562;19.540;2023-04-03T05:46:51;231.20;2252.80
70151;DHT22;57517;43.562;19.540;2023-04-03T05:49:17;231.20;2252.80
70151;DHT22;57517;43.562;19.540;2023-04-03T05:51:43;231.30;2252.80
70151;DHT22;57517;43.562;19.540;2023-04-03T05:54:21;256.00;2252.80
70151;DHT22;57517;43.562;19.540;2023-04-03T05:56:49;231.20;2252.80
70151;DHT22;57517;43.562;19.540;2023-04-03T05:59:16;256.00;2252.80
70151;DHT22;57517;43.562;19.540;2023-04-03T06:01:42;256.00;2252.80
70151;DHT22;57517;43.562;19.540;2023-04-03T06:04:07;256.00;2252.80
70151;DHT22;57517;43.562;19.540;2023-04-03T06:06:54;256.00;2252.80
70151;DHT22;57517;43.562;19.540;2023-04-03T06:09:24;256.00;2252.80
70151;DHT22;57517;43.562;19.540;2023-04-03T06:11:50;256.00;2252.80
70151;DHT22;57517;43.562;19.540;2023-04-03T06:14:16;231.30;2252.80
70151;DHT22;57517;43.562;19.540;2023-04-03T06:16:42;231.30;2252.80
70151;DHT22;57517;43.562;19.540;2023-04-03T06:19:09;231.30;2252.80
70151;DHT22;57517;43.562;19.540;2023-04-03T06:21:35;231.30;2252.80
70151;DHT22;57517;43.562;19.540;2023-04-03T06:24:02;231.20;2252.80
70151;DHT22;57517;43.562;19.540;2023-04-03T06:26:28;231.10;2252.80
70151;DHT22;57517;43.562;19.540;2023-04-03T06:28:54;231.20;2252.80
70151;DHT22;57517;43.562;19.540;2023-04-03T06:31:20;231.30;2252.80
70151;DHT22;57517;43.562;19.540;2023-04-03T06:33:46;231.10;2252.80
70151;DHT22;57517;43.562;19.540;2023-04-03T06:36:11;231.20;2252.80
70151;DHT22;57517;43.562;19.540;2023-04-03T06:38:37;231.20;2252.80
70151;DHT22;57517;43.562;19.540;2023-04-03T06:41:03;231.20;2252.80
70151;DHT22;57517;43.562;19.540;2023-04-03T06:43:29;231.30;2252.80
70151;DHT22;57517;43.562;19.540;2023-04-03T06:45:56;231.30;2252.80
70151;DHT22;57517;43.562;19.540;2023-04-03T06:48:22;231.30;2252.80
70151;DHT22;57517;43.562;19.540;2023-04-03T06:50:48;256.00;2252.80
70151;DHT22;57517;43.562;19.540;2023-04-03T06:53:14;256.00;2252.80
70151;DHT22;57517;43.562;19.540;2023-04-03T06:55:40;256.00;2252.80
70151;DHT22;57517;43.562;19.540;2023-04-03T06:58:06;256.00;2252.80
70151;DHT22;57517;43.562;19.540;2023-04-03T07:00:32;256.00;2252.80
70151;DHT22;57517;43.562;19.540;2023-04-03T07:02:59;256.00;2252.80
70151;DHT22;57517;43.562;19.540;2023-04-03T07:05:25;231.20;2252.80
70151;DHT22;57517;43.562;19.540;2023-04-03T07:07:52;231.20;2252.80
70151;DHT22;57517;43.562;19.540;2023-04-03T07:10:18;231.20;2252.80
70151;DHT22;57517;43.562;19.540;2023-04-03T07:12:44;231.30;2252.80
70151;DHT22;57517;43.562;19.540;2023-04-03T07:15:10;231.20;2252.80
70151;DHT22;57517;43.562;19.540;2023-04-03T07:17:38;231.20;2252.80
70151;DHT22;57517;43.562;19.540;2023-04-03T07:20:04;231.20;2252.80
70151;DHT22;57517;43.562;19.540;2023-04-03T07:22:30;231.10;2252.80
70151;DHT22;57517;43.562;19.540;2023-04-03T07:24:56;231.00;2252.80
70151;DHT22;57517;43.562;19.540;2023-04-03T07:27:22;231.10;2252.80
70151;DHT22;57517;43.562;19.540;2023-04-03T07:29:48;231.10;2252.80
70151;DHT22;57517;43.562;19.540;2023-04-03T07:32:15;231.10;2252.80
70151;DHT22;57517;43.562;19.540;2023-04-03T07:34:41;231.10;2252.80
70151;DHT22;57517;43.562;19.540;2023-04-03T07:37:07;231.10;2252.80
70151;DHT22;57517;43.562;19.540;2023-04-03T07:39:34;231.00;2252.80
70151;DHT22;57517;43.562;19.540;2023-04-03T07:42:00;231.00;2252.80
70151;DHT22;57517;43.562;19.540;2023-04-03T07:44:27;231.00;2252.80
70151;DHT22;57517;43.562;19.540;2023-04-03T07:46:54;231.00;2252.80
70151;DHT22;57517;43.562;19.540;2023-04-03T07:49:21;231.10;2252.80
70151;DHT22;57517;43.562;19.540;2023-04-03T07:51:49;231.00;2252.80
70151;DHT22;57517;43.562;19.540;2023-04-03T07:54:15;231.00;2252.80
70151;DHT22;57517;43.562;19.540;2023-04-03T07:56:41;231.10;2252.80
70151;DHT22;57517;43.562;19.540;2023-04-03T07:59:09;231.10;2252.80
70151;DHT22;57517;43.562;19.540;2023-04-03T08:01:35;231.10;2252.80
70151;DHT22;57517;43.562;19.540;2023-04-03T08:04:01;231.00;2252.80
70151;DHT22;57517;43.562;19.540;2023-04-03T08:06:27;231.00;2252.80
70151;DHT22;57517;43.562;19.540;2023-04-03T08:08:54;231.10;2252.80
70151;DHT22;57517;43.562;19.540;2023-04-03T08:11:21;231.00;2252.80
70151;DHT22;57517;43.562;19.540;2023-04-03T08:13:49;231.00;2252.80
70151;DHT22;57517;43.562;19.540;2023-04-03T08:16:20;231.10;2252.80
70151;DHT22;57517;43.562;19.540;2023-04-03T08:18:46;231.10;2252.80
70151;DHT22;57517;43.562;19.540;2023-04-03T08:21:12;231.00;2227.20
70151;DHT22;57517;43.562;19.540;2023-04-03T08:23:41;231.10;2201.60
70151;DHT22;57517;43.562;19.540;2023-04-03T08:26:12;231.20;2150.40
70151;DHT22;57517;43.562;19.540;2023-04-03T08:28:38;231.10;2099.20
70151;DHT22;57517;43.562;19.540;2023-04-03T08:31:07;231.00;2073.60
70151;DHT22;57517;43.562;19.540;2023-04-03T08:33:34;230.90;2073.60
70151;DHT22;57517;43.562;19.540;2023-04-03T08:36:02;230.80;2048.00
70151;DHT22;57517;43.562;19.540;2023-04-03T08:38:27;230.90;2022.40
70151;DHT22;57517;43.562;19.540;2023-04-03T08:49:26;231.10;1996.80
70151;DHT22;57517;43.562;19.540;2023-04-03T08:51:54;230.90;1996.80
70151;DHT22;57517;43.562;19.540;2023-04-03T08:54:26;230.80;2073.60
70151;DHT22;57517;43.562;19.540;2023-04-03T08:56:53;230.90;2048.00
70151;DHT22;57517;43.562;19.540;2023-04-03T08:59:27;230.90;1996.80
70151;DHT22;57517;43.562;19.540;2023-04-03T09:01:56;230.90;1996.80
70151;DHT22;57517;43.562;19.540;2023-04-03T09:04:24;231.00;1945.60
70151;DHT22;57517;43.562;19.540;2023-04-03T09:06:58;231.00;1971.20
70151;DHT22;57517;43.562;19.540;2023-04-03T09:09:36;230.90;1971.20
70151;DHT22;57517;43.562;19.540;2023-04-03T09:12:25;231.00;1920.00
70151;DHT22;57517;43.562;19.540;2023-04-03T09:20:11;231.00;1894.40
70151;DHT22;57517;43.562;19.540;2023-04-03T09:22:42;230.90;1894.40
70151;DHT22;57517;43.562;19.540;2023-04-03T09:25:18;230.80;1920.00
70151;DHT22;57517;43.562;19.540;2023-04-03T09:27:45;230.80;1894.40
70151;DHT22;57517;43.562;19.540;2023-04-03T09:30:22;230.80;1945.60
70151;DHT22;57517;43.562;19.540;2023-04-03T09:32:51;230.90;1920.00
70151;DHT22;57517;43.562;19.540;2023-04-03T09:35:23;230.90;1894.40
70151;DHT22;57517;43.562;19.540;2023-04-03T09:37:54;230.90;1868.80
70151;DHT22;57517;43.562;19.540;2023-04-03T09:40:30;230.90;1894.40
70151;DHT22;57517;43.562;19.540;2023-04-03T09:43:18;230.90;1868.80
70151;DHT22;57517;43.562;19.540;2023-04-03T09:45:46;230.90;1843.20
70151;DHT22;57517;43.562;19.540;2023-04-03T09:53:33;231.00;1843.20
70151;DHT22;57517;43.562;19.540;2023-04-03T09:56:01;231.00;1843.20
70151;DHT22;57517;43.562;19.540;2023-04-03T09:58:39;230.90;1843.20
70151;DHT22;57517;43.562;19.540;2023-04-03T10:01:31;230.90;1868.80
70151;DHT22;57517;43.562;19.540;2023-04-03T10:04:17;230.90;1868.80
70151;DHT22;57517;43.562;19.540;2023-04-03T10:06:52;230.90;1868.80
70151;DHT22;57517;43.562;19.540;2023-04-03T10:12:08;231.00;1843.20
70151;DHT22;57517;43.562;19.540;2023-04-03T10:14:57;231.00;1945.60
70151;DHT22;57517;43.562;19.540;2023-04-03T10:36:34;256.10;1817.60
70151;DHT22;57517;43.562;19.540;2023-04-03T10:44:56;231.20;1868.80
70151;DHT22;57517;43.562;19.540;2023-04-03T10:52:54;256.00;1945.60
70151;DHT22;57517;43.562;19.540;2023-04-03T10:57:56;256.00;1868.80
70151;DHT22;57517;43.562;19.540;2023-04-03T11:00:40;256.00;1868.80
70151;DHT22;57517;43.562;19.540;2023-04-03T11:03:24;256.10;1843.20
70151;DHT22;57517;43.562;19.540;2023-04-03T11:05:53;256.10;1868.80
70151;DHT22;57517;43.562;19.540;2023-04-03T11:08:26;256.20;1817.60
70151;DHT22;57517;43.562;19.540;2023-04-03T11:11:09;256.20;1817.60
70151;DHT22;57517;43.562;19.540;2023-04-03T11:14:13;256.00;1920.00
70151;DHT22;57517;43.562;19.540;2023-04-03T11:16:47;256.00;1920.00
70151;DHT22;57517;43.562;19.540;2023-04-03T11:19:20;256.10;1945.60
70151;DHT22;57517;43.562;19.540;2023-04-03T11:22:04;256.30;1894.40
70151;DHT22;57517;43.562;19.540;2023-04-03T11:24:34;256.30;2022.40
70151;DHT22;57517;43.562;19.540;2023-04-03T11:27:04;256.20;2048.00
70151;DHT22;57517;43.562;19.540;2023-04-03T11:29:38;256.30;2022.40
70151;DHT22;57517;43.562;19.540;2023-04-03T11:34:38;256.00;2022.40
70151;DHT22;57517;43.562;19.540;2023-04-03T11:37:33;231.30;2048.00
70151;DHT22;57517;43.562;19.540;2023-04-03T11:42:42;231.30;2073.60
70151;DHT22;57517;43.562;19.540;2023-04-03T12:29:24;230.60;2252.80
70151;DHT22;57517;43.562;19.540;2023-04-03T12:40:48;230.50;2252.80
70151;DHT22;57517;43.562;19.540;2023-04-03T12:46:23;205.70;2252.80
70151;DHT22;57517;43.562;19.540;2023-04-03T12:48:57;205.70;2252.80
70151;DHT22;57517;43.562;19.540;2023-04-03T12:51:39;205.50;2252.80
70151;DHT22;57517;43.562;19.540;2023-04-03T12:54:30;205.50;2252.80
70151;DHT22;57517;43.562;19.540;2023-04-03T12:59:36;205.60;2252.80
70151;DHT22;57517;43.562;19.540;2023-04-03T13:02:20;205.50;2252.80
70151;DHT22;57517;43.562;19.540;2023-04-03T13:04:46;205.50;2252.80
70151;DHT22;57517;43.562;19.540;2023-04-03T13:07:24;205.40;2252.80
70151;DHT22;57517;43.562;19.540;2023-04-03T13:10:01;205.30;2252.80
70151;DHT22;57517;43.562;19.540;2023-04-03T13:12:27;205.30;2252.80
70151;DHT22;57517;43.562;19.540;2023-04-03T13:14:59;205.40;2252.80
70151;DHT22;57517;43.562;19.540;2023-04-03T13:17:26;205.30;2252.80
70151;DHT22;57517;43.562;19.540;2023-04-03T13:19:54;205.50;2252.80
70151;DHT22;57517;43.562;19.540;2023-04-03T13:22:35;205.50;2252.80
70151;DHT22;57517;43.562;19.540;2023-04-03T13:25:07;205.40;2252.80
70151;DHT22;57517;43.562;19.540;2023-04-03T13:27:34;205.30;2252.80
70151;DHT22;57517;43.562;19.540;2023-04-03T13:30:06;205.20;2252.80
70151;DHT22;57517;43.562;19.540;2023-04-03T13:32:32;205.20;2252.80
70151;DHT22;57517;43.562;19.540;2023-04-03T13:34:59;205.30;2252.80
70151;DHT22;57517;43.562;19.540;2023-04-03T13:37:33;205.10;2252.80
70151;DHT22;57517;43.562;19.540;2023-04-03T13:42:35;205.20;2252.80
70151;DHT22;57517;43.562;19.540;2023-04-03T13:45:24;205.40;2252.80
70151;DHT22;57517;43.562;19.540;2023-04-03T13:48:19;205.50;2252.80
70151;DHT22;57517;43.562;19.540;2023-04-03T13:50:58;205.40;2252.80
70151;DHT22;57517;43.562;19.540;2023-04-03T13:53:27;205.50;2252.80
70151;DHT22;57517;43.562;19.540;2023-04-03T13:58:30;205.10;2252.80
70151;DHT22;57517;43.562;19.540;2023-04-03T14:01:15;205.10;2252.80
70151;DHT22;57517;43.562;19.540;2023-04-03T14:06:15;205.10;2252.80
70151;DHT22;57517;43.562;19.540;2023-04-03T14:08:42;205.00;2252.80
70151;DHT22;57517;43.562;19.540;2023-04-03T14:11:32;205.00;2252.80
70151;DHT22;57517;43.562;19.540;2023-04-03T14:14:04;205.10;2252.80
70151;DHT22;57517;43.562;19.540;2023-04-03T14:16:33;205.10;2252.80
70151;DHT22;57517;43.562;19.540;2023-04-03T14:19:01;205.00;2252.80
70151;DHT22;57517;43.562;19.540;2023-04-03T14:21:27;205.00;2252.80
70151;DHT22;57517;43.562;19.540;2023-04-03T14:23:52;205.00;2252.80
70151;DHT22;57517;43.562;19.540;2023-04-03T14:26:38;204.90;2252.80
70151;DHT22;57517;43.562;19.540;2023-04-03T14:29:04;204.80;2252.80
70151;DHT22;57517;43.562;19.540;2023-04-03T14:31:29;180.10;2252.80
70151;DHT22;57517;43.562;19.540;2023-04-03T14:33:55;204.80;2252.80
70151;DHT22;57517;43.562;19.540;2023-04-03T14:36:23;204.80;2252.80
70151;DHT22;57517;43.562;19.540;2023-04-03T14:38:53;204.90;2252.80
70151;DHT22;57517;43.562;19.540;2023-04-03T14:41:22;205.10;2252.80
70151;DHT22;57517;43.562;19.540;2023-04-03T14:43:50;205.00;2252.80
70151;DHT22;57517;43.562;19.540;2023-04-03T14:46:37;205.00;2252.80
70151;DHT22;57517;43.562;19.540;2023-04-03T14:49:06;205.00;2252.80
70151;DHT22;57517;43.562;19.540;2023-04-03T14:51:37;204.90;2252.80
70151;DHT22;57517;43.562;19.540;2023-04-03T14:54:04;204.90;2252.80
70151;DHT22;57517;43.562;19.540;2023-04-03T14:56:30;204.90;2252.80
70151;DHT22;57517;43.562;19.540;2023-04-03T14:58:59;205.00;2252.80
70151;DHT22;57517;43.562;19.540;2023-04-03T15:01:26;204.90;2252.80
70151;DHT22;57517;43.562;19.540;2023-04-03T15:03:53;204.90;2252.80
70151;DHT22;57517;43.562;19.540;2023-04-03T15:06:19;205.00;2252.80
70151;DHT22;57517;43.562;19.540;2023-04-03T15:08:46;204.90;2252.80
70151;DHT22;57517;43.562;19.540;2023-04-03T15:11:13;180.10;2252.80
70151;DHT22;57517;43.562;19.540;2023-04-03T15:13:39;204.90;2252.80
70151;DHT22;57517;43.562;19.540;2023-04-03T15:16:10;204.90;2252.80
70151;DHT22;57517;43.562;19.540;2023-04-03T15:18:38;180.10;2252.80
70151;DHT22;57517;43.562;19.540;2023-04-03T15:21:04;180.00;2252.80
70151;DHT22;57517;43.562;19.540;2023-04-03T15:23:30;180.00;2252.80
70151;DHT22;57517;43.562;19.540;2023-04-03T15:25:57;180.00;2252.80
70151;DHT22;57517;43.562;19.540;2023-04-03T15:28:38;180.10;2252.80
70151;DHT22;57517;43.562;19.540;2023-04-03T15:31:06;204.80;2252.80
70151;DHT22;57517;43.562;19.540;2023-04-03T15:33:32;204.90;2252.80
70151;DHT22;57517;43.562;19.540;2023-04-03T15:35:58;204.80;2252.80
70151;DHT22;57517;43.562;19.540;2023-04-03T15:38:24;180.10;2252.80
70151;DHT22;57517;43.562;19.540;2023-04-03T15:40:50;204.80;2252.80
70151;DHT22;57517;43.562;19.540;2023-04-03T15:43:16;204.80;2252.80
70151;DHT22;57517;43.562;19.540;2023-04-03T15:45:43;204.80;2252.80
70151;DHT22;57517;43.562;19.540;2023-04-03T15:48:09;180.10;2252.80
70151;DHT22;57517;43.562;19.540;2023-04-03T15:50:36;180.00;2252.80
70151;DHT22;57517;43.562;19.540;2023-04-03T15:53:02;179.90;2252.80
70151;DHT22;57517;43.562;19.540;2023-04-03T15:55:31;180.00;2252.80
70151;DHT22;57517;43.562;19.540;2023-04-03T15:57:58;180.00;2252.80
70151;DHT22;57517;43.562;19.540;2023-04-03T16:00:25;180.00;2252.80
70151;DHT22;57517;43.562;19.540;2023-04-03T16:02:55;179.90;2252.80
70151;DHT22;57517;43.562;19.540;2023-04-03T16:05:23;179.90;2252.80
70151;DHT22;57517;43.562;19.540;2023-04-03T16:07:49;179.80;2252.80
70151;DHT22;57517;43.562;19.540;2023-04-03T16:10:17;179.80;2252.80
70151;DHT22;57517;43.562;19.540;2023-04-03T16:12:44;179.70;2252.80
70151;DHT22;57517;43.562;19.540;2023-04-03T16:15:10;179.60;2252.80
70151;DHT22;57517;43.562;19.540;2023-04-03T16:17:37;179.60;2252.80
70151;DHT22;57517;43.562;19.540;2023-04-03T16:20:04;179.70;2252.80
70151;DHT22;57517;43.562;19.540;2023-04-03T16:22:31;179.60;2252.80
70151;DHT22;57517;43.562;19.540;2023-04-03T16:24:57;179.70;2252.80
70151;DHT22;57517;43.562;19.540;2023-04-03T16:27:23;179.70;2252.80
70151;DHT22;57517;43.562;19.540;2023-04-03T16:29:56;179.80;2252.80
70151;DHT22;57517;43.562;19.540;2023-04-03T16:32:23;179.80;2252.80
70151;DHT22;57517;43.562;19.540;2023-04-03T16:34:49;179.60;2252.80
70151;DHT22;57517;43.562;19.540;2023-04-03T16:37:16;179.70;2252.80
70151;DHT22;57517;43.562;19.540;2023-04-03T16:39:42;179.60;2252.80
70151;DHT22;57517;43.562;19.540;2023-04-03T16:42:08;179.60;2252.80
70151;DHT22;57517;43.562;19.540;2023-04-03T16:44:35;179.70;2252.80
70151;DHT22;57517;43.562;19.540;2023-04-03T16:47:02;179.70;2252.80
70151;DHT22;57517;43.562;19.540;2023-04-03T16:49:28;179.70;2252.80
70151;DHT22;57517;43.562;19.540;2023-04-03T16:51:58;179.70;2252.80
70151;DHT22;57517;43.562;19.540;2023-04-03T16:54:24;179.70;2252.80
70151;DHT22;57517;43.562;19.540;2023-04-03T16:56:50;179.60;2252.80
70151;DHT22;57517;43.562;19.540;2023-04-03T16:59:16;179.60;2252.80
70151;DHT22;57517;43.562;19.540;2023-04-03T17:01:42;179.80;2252.80
70151;DHT22;57517;43.562;19.540;2023-04-03T17:04:07;179.80;2252.80